SBOSBO CLY / LFKC
Speedbird OnlineSpeedbird Online CLY / LFKC

Calvi-Sainte-Catherine Airport
23:33 14.9°C

Location Calvi, France
Latitude: 42.5244444
Longitude: 8.7930556
Local Time 23:33 on 20 May 2024
UTC +2 hours (Europe/Paris)
Currency £1 equals EUR 1.17
METAR LFKC 202100Z AUTO 00000KT 7000 -RA BKN008 BKN020 BKN028 15/14 Q1009 TEMPO 3000 TSRA BKN010 FEW025CB BKN030
TAF TAF LFKC 201400Z 2015/2115 35004KT 9999 RA FEW035CB BKN035 BKN055 TX22/2111Z TN13/2103Z TEMPO 2015/2020 4000 TEMPO 2020/2024 3000 TSRA BKN010 FEW025CB BKN030 BKN050 BECMG 2102/2104 21010KT CAVOK BECMG 2104/2106 21015G25KT
Weather As Of 20 May 2024 23:33
Description Broken clouds
Wind 0 km/h from North (0°)
Cloud Cover 75%
Precipitation Rain: none, Snow: none
Sunrise 05:58
Sunset 20:44
Web Wikipedia
Codes IATA: CLY
ICAO: LFKC
Altitude 64 Meter / 209 Feet
Distance 1,194 KM / 742 Miles
from London.
Runways
RunwayLength (m)Surface
182310Concrete
362310Concrete
Radio
TypeDescriptionFrequency
ATISCALVI ATIS131.175
GNDCALVI GND121.7
TWRCALVI TWR120.8
Live ATC



Support Speedbird Online

© 2017-2024 Speedbird Online